createdAt,value
2019-06-13T00:01:20.979Z,12.75
2019-06-13T00:01:49.406Z,12.72
2019-06-13T00:02:49.897Z,12.64
2019-06-13T00:03:49.496Z,12.64
2019-06-13T00:04:48.882Z,12.68
2019-06-13T00:05:49.772Z,12.68
2019-06-13T00:06:48.543Z,12.76
2019-06-13T00:07:49.744Z,12.65
2019-06-13T00:08:49.064Z,12.77
2019-06-13T00:09:49.702Z,12.76
2019-06-13T00:10:48.981Z,12.69
2019-06-13T00:11:49.182Z,12.71
2019-06-13T00:12:49.162Z,12.68
2019-06-13T00:13:49.577Z,12.72
2019-06-13T00:14:49.224Z,12.76
2019-06-13T00:15:48.996Z,12.79
2019-06-13T00:16:49.578Z,12.75
2019-06-13T00:17:49.281Z,12.67
2019-06-13T00:18:49.962Z,12.67
2019-06-13T00:19:49.520Z,12.68
2019-06-13T00:20:49.705Z,12.71
2019-06-13T00:21:49.816Z,12.60
2019-06-13T00:22:49.834Z,12.60
2019-06-13T00:23:49.361Z,12.58
2019-06-13T00:24:48.826Z,12.62
2019-06-13T00:25:49.545Z,12.64
2019-06-13T00:26:48.702Z,12.60
2019-06-13T00:27:49.021Z,12.61
2019-06-13T00:28:49.153Z,12.60
2019-06-13T00:29:49.258Z,12.61
2019-06-13T00:30:49.101Z,12.53
2019-06-13T00:31:49.370Z,12.49
2019-06-13T00:32:49.466Z,12.44
2019-06-13T00:33:49.258Z,12.53
2019-06-13T00:34:49.215Z,12.47
2019-06-13T00:35:57.292Z,12.49
2019-06-13T00:36:49.078Z,12.49
2019-06-13T00:37:48.783Z,12.42
2019-06-13T00:38:49.278Z,12.28
2019-06-13T00:39:49.152Z,12.32
2019-06-13T00:40:48.863Z,12.43
2019-06-13T00:41:49.262Z,12.31
2019-06-13T00:42:48.764Z,12.29
2019-06-13T00:43:48.680Z,12.31
2019-06-13T00:44:49.288Z,12.28
2019-06-13T00:45:48.884Z,12.25
2019-06-13T00:46:49.638Z,12.37
2019-06-13T00:47:48.984Z,12.27
2019-06-13T00:48:48.842Z,12.34
2019-06-13T00:49:48.747Z,12.27
2019-06-13T00:50:49.439Z,12.29
2019-06-13T00:51:48.768Z,12.37
2019-06-13T00:52:49.389Z,12.31
2019-06-13T00:53:49.643Z,12.42
2019-06-13T00:54:48.963Z,12.46
2019-06-13T00:55:48.898Z,12.49
2019-06-13T00:56:49.416Z,12.46
2019-06-13T00:57:48.709Z,12.58
2019-06-13T00:58:48.771Z,12.69
2019-06-13T00:59:46.719Z,12.68
2019-06-13T01:00:49.364Z,12.79
2019-06-13T01:01:49.559Z,12.79
2019-06-13T01:02:46.666Z,12.87
2019-06-13T01:03:49.297Z,12.90
2019-06-13T01:04:49.703Z,12.95
2019-06-13T01:05:49.527Z,12.97
2019-06-13T01:06:48.548Z,12.98
2019-06-13T01:07:49.567Z,13.00
2019-06-13T01:08:46.560Z,13.07
2019-06-13T01:09:48.603Z,13.02
2019-06-13T01:10:46.533Z,13.05
2019-06-13T01:11:48.610Z,13.00
2019-06-13T01:12:46.489Z,13.02
2019-06-13T01:13:49.120Z,12.97
2019-06-13T01:14:46.469Z,12.90
2019-06-13T01:15:46.440Z,12.90
2019-06-13T01:16:48.979Z,12.82
2019-06-13T01:17:46.403Z,12.89
2019-06-13T01:18:48.427Z,12.97
2019-06-13T01:19:46.368Z,12.89
2019-06-13T01:20:48.979Z,12.94
2019-06-13T01:21:46.332Z,12.94
2019-06-13T01:22:48.641Z,13.02
2019-06-13T01:23:48.782Z,13.01
2019-06-13T01:24:46.284Z,13.10
2019-06-13T01:25:49.361Z,13.01
2019-06-13T01:26:46.250Z,13.01
2019-06-13T01:27:49.562Z,13.04
2019-06-13T01:28:46.211Z,12.98
2019-06-13T01:29:48.667Z,12.86
2019-06-13T01:30:46.182Z,13.05
2019-06-13T01:31:48.392Z,12.95
2019-06-13T01:32:46.155Z,12.98
2019-06-13T01:33:46.127Z,13.00
2019-06-13T01:34:46.108Z,13.02
2019-06-13T01:35:46.090Z,12.95
2019-06-13T01:36:46.072Z,12.87
2019-06-13T01:37:48.554Z,12.83
2019-06-13T01:38:46.038Z,12.82
2019-06-13T01:39:46.021Z,12.86
2019-06-13T01:40:48.684Z,12.76
2019-06-13T01:41:48.683Z,12.69
2019-06-13T01:42:45.968Z,12.68
2019-06-13T01:43:45.951Z,12.75
2019-06-13T01:44:45.932Z,12.69
2019-06-13T01:45:48.680Z,12.76
2019-06-13T01:46:45.898Z,12.86
2019-06-13T01:47:48.846Z,12.87
2019-06-13T01:48:45.868Z,12.86
2019-06-13T01:49:45.847Z,12.82
2019-06-13T01:50:45.828Z,12.86
2019-06-13T01:51:45.811Z,12.95
2019-06-13T01:52:45.794Z,12.95
2019-06-13T01:53:45.777Z,13.00
2019-06-13T01:54:45.759Z,12.98
2019-06-13T01:55:45.744Z,13.00
2019-06-13T01:56:45.732Z,13.04
2019-06-13T01:57:45.717Z,13.05
2019-06-13T01:58:45.689Z,13.00
2019-06-13T01:59:45.686Z,13.01
2019-06-13T02:00:45.653Z,13.00
2019-06-13T02:01:45.636Z,13.00
2019-06-13T02:02:45.623Z,13.19
2019-06-13T02:03:45.601Z,13.04
2019-06-13T02:04:45.607Z,13.01
2019-06-13T02:05:45.567Z,12.98
2019-06-13T02:06:57.716Z,13.04
2019-06-13T02:07:45.536Z,13.04
2019-06-13T02:08:45.517Z,13.05
2019-06-13T02:09:45.498Z,13.01
2019-06-13T02:10:45.486Z,12.89
2019-06-13T02:11:45.462Z,12.94
2019-06-13T02:12:45.449Z,12.94
2019-06-13T02:13:45.430Z,12.95
2019-06-13T02:14:45.413Z,13.04
2019-06-13T02:15:45.393Z,12.93
2019-06-13T02:16:56.135Z,12.97
2019-06-13T02:17:45.358Z,12.95
2019-06-13T02:18:45.345Z,12.98
2019-06-13T02:19:45.323Z,12.95
2019-06-13T02:20:45.307Z,12.94
2019-06-13T02:21:45.289Z,12.95
2019-06-13T02:22:45.273Z,12.93
2019-06-13T02:23:45.256Z,12.90
2019-06-13T02:24:45.239Z,12.98
2019-06-13T02:25:45.222Z,12.95
2019-06-13T02:26:45.203Z,12.93
2019-06-13T02:27:45.186Z,12.94
2019-06-13T02:28:45.171Z,12.89
2019-06-13T02:29:45.151Z,12.90
2019-06-13T02:30:45.141Z,12.93
2019-06-13T02:31:55.793Z,12.90
2019-06-13T02:32:45.101Z,12.82
2019-06-13T02:33:45.084Z,12.82
2019-06-13T02:34:45.065Z,12.85
2019-06-13T02:35:45.048Z,12.80
2019-06-13T02:36:45.030Z,12.82
2019-06-13T02:37:45.016Z,12.80
2019-06-13T02:38:44.999Z,12.82
2019-06-13T02:39:44.979Z,12.89
2019-06-13T02:40:44.963Z,12.80
2019-06-13T02:41:44.942Z,12.83
2019-06-13T02:42:44.928Z,12.79
2019-06-13T02:43:44.911Z,12.76
2019-06-13T02:44:44.892Z,12.76
2019-06-13T02:45:44.874Z,12.72
2019-06-13T02:46:44.859Z,12.71
2019-06-13T02:47:44.840Z,12.69
2019-06-13T02:48:44.825Z,12.65
2019-06-13T02:49:44.806Z,12.71
2019-06-13T02:50:44.787Z,12.76
2019-06-13T02:51:44.771Z,12.77
2019-06-13T02:52:44.752Z,12.72
2019-06-13T02:53:44.738Z,12.76
2019-06-13T02:54:44.727Z,12.82
2019-06-13T02:55:44.701Z,12.76
2019-06-13T02:56:44.682Z,12.80
2019-06-13T02:57:44.665Z,12.75
2019-06-13T02:58:44.650Z,12.69
2019-06-13T02:59:44.630Z,12.71
2019-06-13T03:00:44.615Z,12.72
2019-06-13T03:01:44.597Z,12.75
2019-06-13T03:02:44.578Z,12.68
2019-06-13T03:03:44.561Z,12.68
2019-06-13T03:04:44.545Z,12.69
2019-06-13T03:05:44.528Z,12.68
2019-06-13T03:06:44.509Z,12.69
2019-06-13T03:07:45.655Z,12.69
2019-06-13T03:08:44.476Z,12.72
2019-06-13T03:09:44.458Z,12.68
2019-06-13T03:10:44.443Z,12.71
2019-06-13T03:11:44.426Z,12.72
2019-06-13T03:12:44.405Z,12.72
2019-06-13T03:13:44.398Z,12.71
2019-06-13T03:14:44.371Z,12.68
2019-06-13T03:15:44.356Z,12.68
2019-06-13T03:16:44.349Z,12.65
2019-06-13T03:17:44.321Z,12.71
2019-06-13T03:18:44.305Z,12.69
2019-06-13T03:19:44.292Z,12.68
2019-06-13T03:20:44.271Z,12.71
2019-06-13T03:21:44.249Z,12.71
2019-06-13T03:22:44.236Z,12.68
2019-06-13T03:23:44.221Z,12.69
2019-06-13T03:24:44.198Z,12.62
2019-06-13T03:25:44.201Z,12.67
2019-06-13T03:26:44.166Z,12.69
2019-06-13T03:27:44.154Z,12.60
2019-06-13T03:28:44.132Z,12.68
2019-06-13T03:29:44.115Z,12.62
2019-06-13T03:30:44.098Z,12.58
2019-06-13T03:31:44.083Z,12.47
2019-06-13T03:32:44.064Z,12.57
2019-06-13T03:33:44.044Z,12.57
2019-06-13T03:34:44.028Z,12.55
2019-06-13T03:35:44.017Z,12.46
2019-06-13T03:36:43.993Z,12.52
2019-06-13T03:37:57.096Z,12.52
2019-06-13T03:38:43.958Z,12.46
2019-06-13T03:39:43.949Z,12.44
2019-06-13T03:40:43.926Z,12.43
2019-06-13T03:41:43.905Z,12.42
2019-06-13T03:42:43.890Z,12.35
2019-06-13T03:43:43.871Z,12.34
2019-06-13T03:44:43.853Z,12.43
2019-06-13T03:45:43.836Z,12.28
2019-06-13T03:46:43.828Z,12.40
2019-06-13T03:47:43.803Z,12.40
2019-06-13T03:48:43.792Z,12.34
2019-06-13T03:49:43.765Z,12.34
2019-06-13T03:50:43.756Z,12.46
2019-06-13T03:51:43.743Z,12.42
2019-06-13T03:52:43.784Z,12.46
2019-06-13T03:53:43.696Z,12.39
2019-06-13T03:54:43.677Z,12.44
2019-06-13T03:55:43.665Z,12.50
2019-06-13T03:56:43.646Z,12.57
2019-06-13T03:57:43.626Z,12.44
2019-06-13T03:58:43.611Z,12.47
2019-06-13T03:59:43.594Z,12.53
2019-06-13T04:00:43.576Z,12.58
2019-06-13T04:01:43.570Z,12.60
2019-06-13T04:02:43.540Z,12.60
2019-06-13T04:03:43.525Z,12.64
2019-06-13T04:04:43.509Z,12.58
2019-06-13T04:05:43.491Z,12.62
2019-06-13T04:06:43.470Z,12.69
2019-06-13T04:07:43.453Z,12.71
2019-06-13T04:08:43.434Z,12.69
2019-06-13T04:09:43.417Z,12.68
2019-06-13T04:10:43.400Z,12.69
2019-06-13T04:11:43.387Z,12.86
2019-06-13T04:12:43.368Z,12.85
2019-06-13T04:13:43.349Z,12.87
2019-06-13T04:14:43.340Z,12.80
2019-06-13T04:15:43.317Z,12.90
2019-06-13T04:16:43.316Z,12.94
2019-06-13T04:17:43.282Z,12.93
2019-06-13T04:18:43.267Z,12.98
2019-06-13T04:19:43.312Z,12.95
2019-06-13T04:20:43.232Z,13.04
2019-06-13T04:21:43.213Z,12.97
2019-06-13T04:22:43.197Z,13.00
2019-06-13T04:23:43.184Z,13.04
2019-06-13T04:24:43.170Z,13.05
2019-06-13T04:25:43.142Z,13.07
2019-06-13T04:26:43.127Z,13.04
2019-06-13T04:27:43.110Z,13.10
2019-06-13T04:28:43.103Z,13.01
2019-06-13T04:29:43.074Z,13.05
2019-06-13T04:30:46.525Z,13.04
2019-06-13T04:31:43.063Z,13.10
2019-06-13T04:32:43.026Z,13.07
2019-06-13T04:33:43.008Z,13.07
2019-06-13T04:34:42.991Z,13.13
2019-06-13T04:35:42.985Z,13.20
2019-06-13T04:36:42.958Z,13.22
2019-06-13T04:37:42.944Z,13.15
2019-06-13T04:38:42.923Z,13.15
2019-06-13T04:39:42.906Z,13.18
2019-06-13T04:40:42.892Z,13.16
2019-06-13T04:41:42.874Z,13.18
2019-06-13T04:42:42.856Z,13.20
2019-06-13T04:43:42.840Z,13.27
2019-06-13T04:44:42.830Z,13.31
2019-06-13T04:45:42.809Z,13.33
2019-06-13T04:46:42.790Z,13.44
2019-06-13T04:47:42.772Z,13.44
2019-06-13T04:48:42.764Z,13.53
2019-06-13T04:49:42.760Z,13.60
2019-06-13T04:50:42.725Z,13.63
2019-06-13T04:51:42.712Z,13.63
2019-06-13T04:52:42.694Z,13.71
2019-06-13T04:53:42.674Z,13.72
2019-06-13T04:54:42.659Z,13.77
2019-06-13T04:55:42.766Z,13.75
2019-06-13T04:56:42.652Z,13.84
2019-06-13T04:57:42.617Z,13.87
2019-06-13T04:58:42.598Z,13.87
2019-06-13T04:59:42.585Z,13.87
2019-06-13T05:00:42.568Z,13.89
2019-06-13T05:01:42.546Z,14.07
2019-06-13T05:02:42.535Z,14.29
2019-06-13T05:03:42.521Z,14.72
2019-06-13T05:04:42.501Z,14.92
2019-06-13T05:05:42.495Z,15.28
2019-06-13T05:06:42.472Z,15.68
2019-06-13T05:07:42.462Z,15.58
2019-06-13T05:08:50.172Z,15.57
2019-06-13T05:09:42.431Z,15.49
2019-06-13T05:10:42.419Z,15.47
2019-06-13T05:11:42.402Z,15.31
2019-06-13T05:12:42.388Z,15.21
2019-06-13T05:13:42.373Z,15.22
2019-06-13T05:14:44.143Z,15.39
2019-06-13T05:15:42.343Z,15.95
2019-06-13T05:16:42.329Z,16.63
2019-06-13T05:17:42.317Z,17.00
2019-06-13T05:18:42.339Z,17.33
2019-06-13T05:19:42.292Z,17.89
2019-06-13T05:20:42.279Z,18.03
2019-06-13T05:21:42.265Z,17.86
2019-06-13T05:22:42.256Z,17.83
2019-06-13T05:23:42.247Z,17.59
2019-06-13T05:24:42.232Z,17.60
2019-06-13T05:25:42.225Z,17.80
2019-06-13T05:26:42.213Z,18.29
2019-06-13T05:27:42.207Z,18.63
2019-06-13T05:28:42.249Z,18.78
2019-06-13T05:29:42.277Z,19.07
2019-06-13T05:30:42.206Z,19.33
2019-06-13T05:31:42.200Z,19.64
2019-06-13T05:32:42.191Z,19.89
2019-06-13T05:33:42.184Z,19.98
2019-06-13T05:34:42.177Z,20.10
2019-06-13T05:35:42.170Z,20.02
2019-06-13T05:36:42.161Z,19.96
2019-06-13T05:37:42.157Z,19.80
2019-06-13T05:38:42.151Z,19.69
2019-06-13T05:39:42.144Z,19.92
2019-06-13T05:40:42.139Z,20.31
2019-06-13T05:41:42.132Z,20.57
2019-06-13T05:42:42.128Z,20.69
2019-06-13T05:43:51.649Z,20.40
2019-06-13T05:44:42.119Z,20.82
2019-06-13T05:45:47.126Z,21.02
2019-06-13T05:46:42.100Z,21.22
2019-06-13T05:47:42.088Z,21.40
2019-06-13T05:48:42.082Z,21.46
2019-06-13T05:49:42.079Z,21.15
2019-06-13T05:50:42.082Z,21.54
2019-06-13T05:51:42.092Z,21.82
2019-06-13T05:52:42.071Z,21.79
2019-06-13T05:53:42.071Z,21.79
2019-06-13T05:54:42.068Z,22.03
2019-06-13T05:55:42.069Z,21.70
2019-06-13T05:56:42.058Z,21.93
2019-06-13T05:57:42.059Z,21.85
2019-06-13T05:58:42.057Z,22.07
2019-06-13T05:59:44.418Z,22.21
2019-06-13T06:00:42.048Z,22.29
2019-06-13T06:01:42.046Z,22.50
2019-06-13T06:02:42.062Z,22.79
2019-06-13T06:03:42.045Z,23.08
2019-06-13T06:04:42.348Z,23.41
2019-06-13T06:05:42.044Z,23.25
2019-06-13T06:06:42.041Z,23.00
2019-06-13T06:07:42.034Z,22.95
2019-06-13T06:08:50.713Z,23.02
2019-06-13T06:09:43.000Z,23.15
2019-06-13T06:10:42.029Z,23.16
2019-06-13T06:11:42.030Z,23.15
2019-06-13T06:12:42.038Z,22.95
2019-06-13T06:13:42.023Z,22.90
2019-06-13T06:14:42.022Z,22.87
2019-06-13T06:15:42.019Z,22.99
2019-06-13T06:16:42.017Z,23.15
2019-06-13T06:17:42.022Z,23.49
2019-06-13T06:18:42.021Z,23.56
2019-06-13T06:19:42.019Z,23.28
2019-06-13T06:20:42.012Z,23.24
2019-06-13T06:21:42.016Z,23.09
2019-06-13T06:22:42.013Z,23.23
2019-06-13T06:23:42.005Z,23.25
2019-06-13T06:24:42.007Z,23.28
2019-06-13T06:25:42.005Z,23.76
2019-06-13T06:26:42.013Z,24.05
2019-06-13T06:27:41.999Z,23.98
2019-06-13T06:28:41.997Z,23.84
2019-06-13T06:29:42.025Z,23.72
2019-06-13T06:30:41.997Z,23.77
2019-06-13T06:31:42.067Z,23.80
2019-06-13T06:32:41.991Z,23.91
2019-06-13T06:33:41.990Z,24.01
2019-06-13T06:34:41.990Z,23.77
2019-06-13T06:35:41.989Z,23.68
2019-06-13T06:36:41.990Z,23.77
2019-06-13T06:37:42.005Z,23.96
2019-06-13T06:38:41.984Z,24.02
2019-06-13T06:39:53.245Z,24.20
2019-06-13T06:40:41.981Z,24.31
2019-06-13T06:41:41.980Z,24.31
2019-06-13T06:42:41.977Z,24.35
2019-06-13T06:43:41.978Z,24.18
2019-06-13T06:44:41.989Z,24.16
2019-06-13T06:45:41.972Z,24.27
2019-06-13T06:46:41.972Z,24.42
2019-06-13T06:47:41.970Z,24.73
2019-06-13T06:48:41.967Z,24.73
2019-06-13T06:49:41.966Z,23.90
2019-06-13T06:50:41.966Z,24.08
2019-06-13T06:51:41.964Z,23.91
2019-06-13T06:52:41.965Z,23.84
2019-06-13T06:53:41.958Z,23.64
2019-06-13T06:54:41.956Z,23.59
2019-06-13T06:55:41.955Z,23.74
2019-06-13T06:56:41.985Z,23.98
2019-06-13T06:57:41.969Z,24.13
2019-06-13T06:58:41.967Z,24.18
2019-06-13T06:59:41.949Z,24.39
2019-06-13T07:00:41.954Z,24.14
2019-06-13T07:01:41.944Z,24.46
2019-06-13T07:02:41.947Z,24.53
2019-06-13T07:03:41.941Z,25.02
2019-06-13T07:04:41.940Z,24.89
2019-06-13T07:05:41.936Z,24.68
2019-06-13T07:06:41.936Z,25.02
2019-06-13T07:07:41.932Z,25.33
2019-06-13T07:08:41.932Z,24.84
2019-06-13T07:09:41.929Z,24.96
2019-06-13T07:10:41.928Z,25.10
2019-06-13T07:11:41.930Z,24.68
2019-06-13T07:12:41.953Z,24.70
2019-06-13T07:13:41.926Z,24.91
2019-06-13T07:14:41.921Z,24.41
2019-06-13T07:15:41.921Z,23.79
2019-06-13T07:16:41.917Z,23.84
2019-06-13T07:17:41.926Z,23.58
2019-06-13T07:18:41.915Z,23.71
2019-06-13T07:19:41.910Z,23.94
2019-06-13T07:20:41.912Z,23.79
2019-06-13T07:21:41.909Z,23.66
2019-06-13T07:22:41.905Z,23.98
2019-06-13T07:23:41.906Z,23.99
2019-06-13T07:24:41.899Z,23.59
2019-06-13T07:25:41.898Z,23.09
2019-06-13T07:26:41.891Z,22.83
2019-06-13T07:27:41.887Z,22.62
2019-06-13T07:28:41.883Z,22.55
2019-06-13T07:29:41.878Z,22.51
2019-06-13T07:30:41.876Z,22.44
2019-06-13T07:31:41.869Z,22.24
2019-06-13T07:32:41.865Z,22.03
2019-06-13T07:33:41.981Z,22.05
2019-06-13T07:34:41.878Z,22.05
2019-06-13T07:35:41.848Z,22.29
2019-06-13T07:36:41.841Z,22.55
2019-06-13T07:37:41.838Z,22.84
2019-06-13T07:38:41.836Z,23.20
2019-06-13T07:39:41.828Z,23.77
2019-06-13T07:40:41.823Z,23.91
2019-06-13T07:41:41.818Z,23.94
2019-06-13T07:42:41.815Z,24.03
2019-06-13T07:43:41.811Z,24.24
2019-06-13T07:44:41.808Z,24.36
2019-06-13T07:45:41.804Z,24.42
2019-06-13T07:46:41.805Z,24.39
2019-06-13T07:47:43.353Z,24.53
2019-06-13T07:48:41.796Z,24.16
2019-06-13T07:49:41.792Z,24.56
2019-06-13T07:50:41.789Z,24.84
2019-06-13T07:51:41.788Z,25.31
2019-06-13T07:52:41.784Z,25.75
2019-06-13T07:53:41.778Z,25.61
2019-06-13T07:54:41.776Z,25.16
2019-06-13T07:55:41.783Z,25.17
2019-06-13T07:56:41.770Z,25.10
2019-06-13T07:57:41.769Z,25.25
2019-06-13T07:58:41.764Z,24.96
2019-06-13T07:59:41.761Z,25.02
2019-06-13T08:00:41.760Z,24.83
2019-06-13T08:01:41.761Z,24.74
2019-06-13T08:02:41.752Z,24.68
2019-06-13T08:03:41.760Z,24.35
2019-06-13T08:04:41.753Z,24.14
2019-06-13T08:05:41.739Z,24.06
2019-06-13T08:06:45.778Z,23.87
2019-06-13T08:07:41.732Z,23.53
2019-06-13T08:08:41.728Z,23.28
2019-06-13T08:09:41.724Z,23.18
2019-06-13T08:10:52.140Z,23.05
2019-06-13T08:11:41.715Z,23.24
2019-06-13T08:12:41.731Z,23.16
2019-06-13T08:13:41.717Z,23.34
2019-06-13T08:14:41.700Z,23.68
2019-06-13T08:15:41.756Z,23.31
2019-06-13T08:16:41.720Z,23.76
2019-06-13T08:17:41.677Z,24.01
2019-06-13T08:18:41.674Z,24.14
2019-06-13T08:19:41.671Z,23.77
2019-06-13T08:20:41.728Z,23.79
2019-06-13T08:21:41.666Z,24.23
2019-06-13T08:22:41.653Z,24.53
2019-06-13T08:23:41.649Z,24.91
2019-06-13T08:24:41.642Z,25.36
2019-06-13T08:25:41.697Z,25.80
2019-06-13T08:26:41.635Z,25.72
2019-06-13T08:27:42.007Z,25.94
2019-06-13T08:28:41.640Z,25.88
2019-06-13T08:29:41.624Z,25.62
2019-06-13T08:30:41.645Z,25.48
2019-06-13T08:31:41.615Z,25.56
2019-06-13T08:32:43.196Z,25.87
2019-06-13T08:33:41.641Z,26.19
2019-06-13T08:34:41.895Z,26.47
2019-06-13T08:35:41.604Z,26.28
2019-06-13T08:36:41.876Z,26.02
2019-06-13T08:37:41.594Z,25.62
2019-06-13T08:38:41.589Z,25.50
2019-06-13T08:39:41.585Z,24.99
2019-06-13T08:40:41.580Z,24.60
2019-06-13T08:41:41.575Z,23.96
2019-06-13T08:42:41.575Z,24.08
2019-06-13T08:43:41.608Z,24.01
2019-06-13T08:44:41.563Z,23.79
2019-06-13T08:45:41.556Z,23.79
2019-06-13T08:46:41.556Z,23.39
2019-06-13T08:47:41.544Z,23.47
2019-06-13T08:48:59.050Z,23.23
2019-06-13T08:49:41.558Z,23.06
2019-06-13T08:50:41.522Z,23.32
2019-06-13T08:51:41.524Z,23.41
2019-06-13T08:52:41.529Z,23.47
2019-06-13T08:53:41.505Z,23.94
2019-06-13T08:54:41.517Z,24.11
2019-06-13T08:55:41.500Z,23.95
2019-06-13T08:56:41.485Z,23.84
2019-06-13T08:57:41.488Z,24.24
2019-06-13T08:58:41.480Z,24.43
2019-06-13T08:59:44.646Z,24.45
2019-06-13T09:00:42.184Z,24.32
2019-06-13T09:01:41.982Z,24.14
2019-06-13T09:02:41.984Z,24.02
2019-06-13T09:03:41.461Z,23.76
2019-06-13T09:04:41.474Z,23.40
2019-06-13T09:05:41.519Z,23.24
2019-06-13T09:06:41.447Z,22.93
2019-06-13T09:07:46.112Z,22.90
2019-06-13T09:08:41.407Z,22.75
2019-06-13T09:09:41.408Z,22.23
2019-06-13T09:10:41.394Z,22.46
2019-06-13T09:11:44.762Z,22.79
2019-06-13T09:12:41.389Z,23.00
2019-06-13T09:13:41.385Z,23.35
2019-06-13T09:14:41.364Z,23.65
2019-06-13T09:15:41.360Z,23.32
2019-06-13T09:16:42.281Z,23.23
2019-06-13T09:17:41.392Z,22.88
2019-06-13T09:18:41.354Z,23.12
2019-06-13T09:19:41.351Z,22.97
2019-06-13T09:20:41.323Z,22.84
2019-06-13T09:21:41.323Z,22.79
2019-06-13T09:22:42.325Z,23.05
2019-06-13T09:23:41.328Z,23.41
2019-06-13T09:24:41.299Z,23.83
2019-06-13T09:25:41.300Z,23.56
2019-06-13T09:26:41.295Z,23.34
2019-06-13T09:27:41.280Z,23.34
2019-06-13T09:28:41.337Z,23.24
2019-06-13T09:29:41.266Z,23.18
2019-06-13T09:30:41.258Z,23.54
2019-06-13T09:31:41.526Z,23.90
2019-06-13T09:33:00.253Z,24.13
2019-06-13T09:33:41.247Z,24.23
2019-06-13T09:34:41.235Z,24.46
2019-06-13T09:35:41.531Z,24.18
2019-06-13T09:36:41.498Z,24.23
2019-06-13T09:37:41.217Z,24.33
2019-06-13T09:38:45.108Z,24.02
2019-06-13T09:39:41.207Z,23.90
2019-06-13T09:40:42.474Z,24.13
2019-06-13T09:42:04.279Z,24.27
2019-06-13T09:42:41.192Z,24.43
2019-06-13T09:43:41.464Z,24.70
2019-06-13T09:44:41.193Z,24.83
2019-06-13T09:45:43.519Z,24.92
2019-06-13T09:46:41.407Z,25.11
2019-06-13T09:47:42.096Z,25.31
2019-06-13T09:48:41.210Z,25.56
2019-06-13T09:49:41.236Z,25.54
2019-06-13T09:50:48.959Z,24.99
2019-06-13T09:51:41.947Z,25.14
2019-06-13T09:52:41.845Z,25.35
2019-06-13T09:53:43.478Z,25.31
2019-06-13T09:54:57.637Z,25.02
2019-06-13T09:55:41.138Z,25.31
2019-06-13T09:56:41.127Z,24.86
2019-06-13T09:57:41.150Z,24.92
2019-06-13T09:58:41.374Z,24.80
2019-06-13T09:59:41.652Z,24.96
2019-06-13T10:00:41.116Z,25.01
2019-06-13T10:01:42.063Z,25.46
2019-06-13T10:02:41.114Z,25.95
2019-06-13T10:03:42.160Z,25.87
2019-06-13T10:04:41.302Z,26.05
2019-06-13T10:05:41.250Z,26.18
2019-06-13T10:06:41.090Z,26.25
2019-06-13T10:07:41.086Z,26.32
2019-06-13T10:08:41.168Z,25.87
2019-06-13T10:09:41.205Z,25.14
2019-06-13T10:10:41.288Z,24.95
2019-06-13T10:11:41.205Z,24.48
2019-06-13T10:12:47.811Z,24.99
2019-06-13T10:13:42.892Z,25.17
2019-06-13T10:14:41.373Z,25.47
2019-06-13T10:15:41.432Z,25.39
2019-06-13T10:16:41.042Z,25.07
2019-06-13T10:17:41.598Z,24.69
2019-06-13T10:18:41.470Z,24.32
2019-06-13T10:19:41.023Z,24.31
2019-06-13T10:20:41.016Z,24.39
2019-06-13T10:21:41.039Z,24.43
2019-06-13T10:22:41.011Z,24.56
2019-06-13T10:23:41.419Z,24.53
2019-06-13T10:25:01.026Z,24.35
2019-06-13T10:25:40.985Z,24.54
2019-06-13T10:26:40.982Z,24.68
2019-06-13T10:27:41.806Z,24.54
2019-06-13T10:28:40.965Z,24.60
2019-06-13T10:29:40.968Z,24.23
2019-06-13T10:30:41.296Z,24.20
2019-06-13T10:31:42.318Z,24.27
2019-06-13T10:32:41.543Z,24.18
2019-06-13T10:33:41.496Z,24.09
2019-06-13T10:34:40.922Z,24.32
2019-06-13T10:35:40.922Z,24.35
2019-06-13T10:36:40.910Z,24.56
2019-06-13T10:37:40.904Z,24.56
2019-06-13T10:38:49.176Z,24.70
2019-06-13T10:39:40.898Z,24.68
2019-06-13T10:40:40.988Z,24.98
2019-06-13T10:41:41.316Z,24.96
2019-06-13T10:43:01.854Z,25.01
2019-06-13T10:43:43.109Z,24.92
2019-06-13T10:44:40.861Z,24.69
2019-06-13T10:45:41.242Z,24.86
2019-06-13T10:46:41.879Z,24.73
2019-06-13T10:47:45.076Z,24.79
2019-06-13T10:48:40.846Z,24.68
2019-06-13T10:49:40.830Z,24.54
2019-06-13T10:50:40.822Z,24.84
2019-06-13T10:51:40.814Z,25.09
2019-06-13T10:52:41.190Z,25.16
2019-06-13T10:53:40.804Z,25.25
2019-06-13T10:54:42.648Z,24.99
2019-06-13T10:55:40.801Z,24.33
2019-06-13T10:56:41.064Z,24.42
2019-06-13T10:57:40.782Z,24.64
2019-06-13T10:58:40.777Z,24.99
2019-06-13T10:59:40.769Z,24.91
2019-06-13T11:00:41.179Z,24.77
2019-06-13T11:01:40.751Z,24.73
2019-06-13T11:02:40.754Z,24.69
2019-06-13T11:03:41.588Z,24.69
2019-06-13T11:04:40.805Z,24.84
2019-06-13T11:05:40.722Z,24.80
2019-06-13T11:06:40.955Z,24.58
2019-06-13T11:07:40.864Z,24.50
2019-06-13T11:08:40.708Z,24.23
2019-06-13T11:09:40.838Z,23.96
2019-06-13T11:10:40.678Z,23.99
2019-06-13T11:11:40.701Z,23.95
2019-06-13T11:12:40.664Z,24.03
2019-06-13T11:13:40.657Z,24.13
2019-06-13T11:14:40.648Z,24.36
2019-06-13T11:15:40.894Z,24.17
2019-06-13T11:16:53.892Z,24.16
2019-06-13T11:17:43.665Z,24.11
2019-06-13T11:18:40.617Z,24.08
2019-06-13T11:19:40.658Z,23.91
2019-06-13T11:20:40.677Z,23.90
2019-06-13T11:21:40.771Z,23.84
2019-06-13T11:22:40.599Z,23.71
2019-06-13T11:23:44.617Z,23.71
2019-06-13T11:24:40.562Z,23.54
2019-06-13T11:25:40.617Z,23.43
2019-06-13T11:26:40.789Z,23.56
2019-06-13T11:27:40.541Z,23.00
2019-06-13T11:28:40.527Z,22.85
2019-06-13T11:29:40.519Z,22.81
2019-06-13T11:30:40.513Z,22.75
2019-06-13T11:31:40.546Z,22.81
2019-06-13T11:32:40.941Z,22.55
2019-06-13T11:33:40.496Z,22.39
2019-06-13T11:34:40.531Z,22.24
2019-06-13T11:35:40.862Z,22.21
2019-06-13T11:36:41.259Z,22.07
2019-06-13T11:37:41.257Z,22.08
2019-06-13T11:38:40.596Z,22.07
2019-06-13T11:39:43.237Z,22.02
2019-06-13T11:40:40.408Z,22.23
2019-06-13T11:41:40.398Z,22.07
2019-06-13T11:42:41.054Z,22.44
2019-06-13T11:43:40.671Z,22.50
2019-06-13T11:44:40.376Z,22.66
2019-06-13T11:45:40.711Z,22.84
2019-06-13T11:46:40.343Z,23.31
2019-06-13T11:47:41.271Z,23.49
2019-06-13T11:48:40.324Z,23.27
2019-06-13T11:49:40.372Z,23.09
2019-06-13T11:50:41.963Z,22.97
2019-06-13T11:51:40.436Z,23.13
2019-06-13T11:52:41.645Z,23.15
2019-06-13T11:53:40.995Z,23.46
2019-06-13T11:54:40.266Z,23.80
2019-06-13T11:55:40.259Z,23.95
2019-06-13T11:56:40.580Z,23.94
2019-06-13T11:57:40.266Z,24.17
2019-06-13T11:58:40.229Z,24.20
2019-06-13T11:59:40.414Z,23.79
2019-06-13T12:00:44.534Z,23.80
2019-06-13T12:01:41.231Z,23.80
2019-06-13T12:02:40.728Z,23.83
2019-06-13T12:03:40.194Z,24.01
2019-06-13T12:04:40.914Z,24.66
2019-06-13T12:05:40.167Z,25.24
2019-06-13T12:06:40.779Z,25.72
2019-06-13T12:07:42.194Z,25.75
2019-06-13T12:08:40.393Z,25.48
2019-06-13T12:09:40.195Z,25.01
2019-06-13T12:10:40.142Z,24.84
2019-06-13T12:11:40.567Z,24.46
2019-06-13T12:12:41.007Z,24.48
2019-06-13T12:14:00.821Z,24.66
2019-06-13T12:14:41.433Z,24.73
2019-06-13T12:15:40.253Z,24.81
2019-06-13T12:16:43.835Z,25.07
2019-06-13T12:17:40.169Z,25.16
2019-06-13T12:18:40.167Z,25.35
2019-06-13T12:19:40.497Z,25.24
2019-06-13T12:20:40.048Z,25.25
2019-06-13T12:21:40.222Z,25.09
2019-06-13T12:22:40.595Z,25.11
2019-06-13T12:23:40.030Z,25.01
2019-06-13T12:24:40.579Z,24.70
2019-06-13T12:25:40.079Z,24.54
2019-06-13T12:26:40.315Z,23.84
2019-06-13T12:27:40.232Z,23.91
2019-06-13T12:28:40.255Z,23.91
2019-06-13T12:29:40.061Z,24.06
2019-06-13T12:30:40.049Z,24.17
2019-06-13T12:31:40.593Z,24.26
2019-06-13T12:32:42.412Z,24.92
2019-06-13T12:33:41.136Z,24.69
2019-06-13T12:34:40.154Z,24.35
2019-06-13T12:35:41.076Z,24.20
2019-06-13T12:36:39.993Z,24.14
2019-06-13T12:37:39.911Z,23.98
2019-06-13T12:38:43.871Z,23.71
2019-06-13T12:39:40.201Z,24.01
2019-06-13T12:40:40.214Z,24.43
2019-06-13T12:41:39.885Z,24.69
2019-06-13T12:42:39.868Z,25.04
2019-06-13T12:43:40.455Z,25.63
2019-06-13T12:44:39.868Z,25.94
2019-06-13T12:45:40.178Z,26.28
2019-06-13T12:46:40.272Z,27.00
2019-06-13T12:47:39.832Z,27.17
2019-06-13T12:48:40.983Z,26.88
2019-06-13T12:49:39.864Z,26.22
2019-06-13T12:50:39.822Z,25.94
2019-06-13T12:51:40.142Z,25.62
2019-06-13T12:52:41.911Z,25.13